createdAt,value
2023-05-30T00:02:20.149Z,15.69
2023-05-30T00:04:47.251Z,15.65
2023-05-30T00:07:14.213Z,15.61
2023-05-30T00:09:41.202Z,15.51
2023-05-30T00:12:08.101Z,15.50
2023-05-30T00:14:38.094Z,15.46
2023-05-30T00:17:06.519Z,15.44
2023-05-30T00:19:33.354Z,15.42
2023-05-30T00:22:00.130Z,15.36
2023-05-30T00:24:27.195Z,15.35
2023-05-30T00:26:53.879Z,15.33
2023-05-30T00:29:20.745Z,15.35
2023-05-30T00:31:47.752Z,15.32
2023-05-30T00:34:14.405Z,15.26
2023-05-30T00:36:41.024Z,15.20
2023-05-30T00:39:08.467Z,15.16
2023-05-30T00:41:35.156Z,15.11
2023-05-30T00:44:02.901Z,15.11
2023-05-30T00:46:31.143Z,15.06
2023-05-30T00:48:58.883Z,15.02
2023-05-30T00:51:29.331Z,14.98
2023-05-30T00:53:57.284Z,14.94
2023-05-30T00:56:24.401Z,14.90
2023-05-30T00:58:52.462Z,14.86
2023-05-30T01:01:21.534Z,14.82
2023-05-30T01:03:49.170Z,14.74
2023-05-30T01:06:16.338Z,14.72
2023-05-30T01:08:43.234Z,14.71
2023-05-30T01:11:33.160Z,14.68
2023-05-30T01:14:20.864Z,14.65
2023-05-30T01:17:12.558Z,14.60
2023-05-30T01:20:00.894Z,14.59
2023-05-30T01:22:45.873Z,14.49
2023-05-30T01:25:41.201Z,14.44
2023-05-30T01:28:11.904Z,14.35
2023-05-30T01:30:41.832Z,14.32
2023-05-30T01:33:10.040Z,14.29
2023-05-30T01:35:37.190Z,14.24
2023-05-30T01:38:04.146Z,14.15
2023-05-30T01:40:31.580Z,14.11
2023-05-30T01:43:03.151Z,14.10
2023-05-30T01:46:05.284Z,14.08
2023-05-30T01:49:10.383Z,14.07
2023-05-30T01:51:44.993Z,14.04
2023-05-30T01:54:16.188Z,14.02
2023-05-30T01:56:45.662Z,13.98
2023-05-30T01:59:12.697Z,13.99
2023-05-30T02:01:41.540Z,13.97
2023-05-30T02:04:08.466Z,13.94
2023-05-30T02:06:35.199Z,13.95
2023-05-30T02:09:02.146Z,13.91
2023-05-30T02:11:29.270Z,13.90
2023-05-30T02:13:56.498Z,14.00
2023-05-30T02:16:25.735Z,14.00
2023-05-30T02:18:54.000Z,13.96
2023-05-30T02:21:21.895Z,14.02
2023-05-30T02:23:48.709Z,14.01
2023-05-30T02:26:16.188Z,13.99
2023-05-30T02:28:43.167Z,14.00
2023-05-30T02:31:09.821Z,14.04
2023-05-30T02:33:36.686Z,14.01
2023-05-30T02:36:03.552Z,14.01
2023-05-30T02:38:30.294Z,13.99
2023-05-30T02:40:57.290Z,13.96
2023-05-30T02:43:24.196Z,13.90
2023-05-30T02:45:50.800Z,13.90
2023-05-30T02:48:17.819Z,13.86
2023-05-30T02:50:44.416Z,13.88
2023-05-30T02:53:11.162Z,13.88
2023-05-30T02:55:38.350Z,13.86
2023-05-30T02:58:04.957Z,13.85
2023-05-30T03:00:31.723Z,13.84
2023-05-30T03:02:59.151Z,13.84
2023-05-30T03:05:26.608Z,13.83
2023-05-30T03:07:54.970Z,13.81
2023-05-30T03:10:21.824Z,13.75
2023-05-30T03:12:48.459Z,13.80
2023-05-30T03:15:15.199Z,13.79
2023-05-30T03:17:43.668Z,13.71
2023-05-30T03:20:11.183Z,13.71
2023-05-30T03:22:38.345Z,13.71
2023-05-30T03:25:05.601Z,13.71
2023-05-30T03:27:32.418Z,13.73
2023-05-30T03:29:59.064Z,13.78
2023-05-30T03:32:26.242Z,13.78
2023-05-30T03:34:54.035Z,13.81
2023-05-30T03:37:21.297Z,13.83
2023-05-30T03:39:48.109Z,13.84
2023-05-30T03:42:14.775Z,13.87
2023-05-30T03:44:41.462Z,13.86
2023-05-30T03:47:08.288Z,13.90
2023-05-30T03:49:34.914Z,13.97
2023-05-30T03:52:01.690Z,13.98
2023-05-30T03:54:28.528Z,14.05
2023-05-30T03:56:55.124Z,14.07
2023-05-30T03:59:23.137Z,14.09
2023-05-30T04:01:50.122Z,14.14
2023-05-30T04:04:16.815Z,14.14
2023-05-30T04:06:43.585Z,14.18
2023-05-30T04:09:10.570Z,14.22
2023-05-30T04:11:37.226Z,14.25
2023-05-30T04:14:03.916Z,14.30
2023-05-30T04:16:30.899Z,14.34
2023-05-30T04:18:57.659Z,14.36
2023-05-30T04:21:24.328Z,14.44
2023-05-30T04:23:51.227Z,14.47
2023-05-30T04:26:17.812Z,14.50
2023-05-30T04:28:45.041Z,14.49
2023-05-30T04:31:21.452Z,14.56
2023-05-30T04:33:50.038Z,14.60
2023-05-30T04:36:20.039Z,14.66
2023-05-30T04:38:51.141Z,14.72
2023-05-30T04:41:26.142Z,14.77
2023-05-30T04:43:55.844Z,14.82
2023-05-30T04:46:23.145Z,14.93
2023-05-30T04:48:54.581Z,15.00
2023-05-30T04:51:21.996Z,15.09
2023-05-30T04:53:49.568Z,15.16
2023-05-30T04:56:16.987Z,15.25
2023-05-30T04:58:48.037Z,15.37
2023-05-30T05:01:15.195Z,15.42
2023-05-30T05:03:45.855Z,15.52
2023-05-30T05:06:13.186Z,15.61
2023-05-30T05:08:39.865Z,15.67
2023-05-30T05:11:07.567Z,15.74
2023-05-30T05:13:35.112Z,15.78
2023-05-30T05:16:02.418Z,15.87
2023-05-30T05:18:29.312Z,15.94
2023-05-30T05:20:58.947Z,16.02
2023-05-30T05:23:26.280Z,16.09
2023-05-30T05:25:53.015Z,16.15
2023-05-30T05:28:20.883Z,16.27
2023-05-30T05:30:49.585Z,16.36
2023-05-30T05:33:16.993Z,16.46
2023-05-30T05:35:46.459Z,16.54
2023-05-30T05:38:14.142Z,16.63
2023-05-30T05:40:42.175Z,16.75
2023-05-30T05:43:08.875Z,16.82
2023-05-30T05:45:35.670Z,16.87
2023-05-30T05:48:02.790Z,16.96
2023-05-30T05:50:29.591Z,17.02
2023-05-30T05:52:56.288Z,17.12
2023-05-30T05:55:23.284Z,17.18
2023-05-30T05:57:50.068Z,17.29
2023-05-30T06:00:17.107Z,17.41
2023-05-30T06:02:44.068Z,17.52
2023-05-30T06:05:11.316Z,17.58
2023-05-30T06:07:38.219Z,17.75
2023-05-30T06:10:05.455Z,17.90
2023-05-30T06:12:32.824Z,18.04
2023-05-30T06:14:59.464Z,18.23
2023-05-30T06:17:27.445Z,18.39
2023-05-30T06:19:55.764Z,18.59
2023-05-30T06:22:22.935Z,18.83
2023-05-30T06:24:49.837Z,19.08
2023-05-30T06:27:16.776Z,19.32
2023-05-30T06:29:43.548Z,19.55
2023-05-30T06:32:16.144Z,19.79
2023-05-30T06:34:43.347Z,20.00
2023-05-30T06:37:11.845Z,20.23
2023-05-30T06:39:39.990Z,20.52
2023-05-30T06:42:10.770Z,20.74
2023-05-30T06:44:38.083Z,20.94
2023-05-30T06:47:05.681Z,21.12
2023-05-30T06:49:32.753Z,21.34
2023-05-30T06:51:59.616Z,21.55
2023-05-30T06:54:26.556Z,21.71
2023-05-30T06:56:53.251Z,21.93
2023-05-30T06:59:20.513Z,22.10
2023-05-30T07:01:47.823Z,22.24
2023-05-30T07:04:14.792Z,22.37
2023-05-30T07:06:42.124Z,22.51
2023-05-30T07:09:08.810Z,22.68
2023-05-30T07:11:35.546Z,22.83
2023-05-30T07:14:02.802Z,22.95
2023-05-30T07:16:29.490Z,23.00
2023-05-30T07:19:08.247Z,23.07
2023-05-30T07:21:38.978Z,23.16
2023-05-30T07:24:06.204Z,23.15
2023-05-30T07:26:33.269Z,23.25
2023-05-30T07:29:00.249Z,23.34
2023-05-30T07:31:27.105Z,23.43
2023-05-30T07:33:53.791Z,23.55
2023-05-30T07:36:20.853Z,23.71
2023-05-30T07:38:47.519Z,23.83
2023-05-30T07:41:14.256Z,23.91
2023-05-30T07:43:41.272Z,23.98
2023-05-30T07:46:08.007Z,24.17
2023-05-30T07:48:34.728Z,24.28
2023-05-30T07:51:01.557Z,24.29
2023-05-30T07:53:28.436Z,24.35
2023-05-30T07:55:55.230Z,24.47
2023-05-30T07:58:23.953Z,24.50
2023-05-30T08:00:50.970Z,24.54
2023-05-30T08:03:17.725Z,24.72
2023-05-30T08:05:48.079Z,24.82
2023-05-30T08:08:14.846Z,24.89
2023-05-30T08:10:41.592Z,25.06
2023-05-30T08:13:08.683Z,25.10
2023-05-30T08:15:35.712Z,25.11
2023-05-30T08:18:03.388Z,25.21
2023-05-30T08:20:30.933Z,25.32
2023-05-30T08:22:57.923Z,25.44
2023-05-30T08:25:33.539Z,25.58
2023-05-30T08:28:00.947Z,25.64
2023-05-30T08:30:27.732Z,25.74
2023-05-30T08:32:55.034Z,25.85
2023-05-30T08:35:22.157Z,25.96
2023-05-30T08:37:48.874Z,26.06
2023-05-30T08:40:17.509Z,26.13
2023-05-30T08:42:44.300Z,26.20
2023-05-30T08:45:12.565Z,26.26
2023-05-30T08:47:39.993Z,26.39
2023-05-30T08:50:10.686Z,26.49
2023-05-30T08:52:39.616Z,26.60
2023-05-30T08:55:16.116Z,26.71
2023-05-30T08:57:55.400Z,26.85
2023-05-30T09:00:23.979Z,26.84
2023-05-30T09:02:55.216Z,26.82
2023-05-30T09:05:22.282Z,26.79
2023-05-30T09:07:55.383Z,26.73
2023-05-30T09:10:22.600Z,26.70
2023-05-30T09:12:49.251Z,26.76
2023-05-30T09:15:17.287Z,26.79
2023-05-30T09:17:44.433Z,26.71
2023-05-30T09:20:17.417Z,26.80
2023-05-30T09:22:46.371Z,26.98
2023-05-30T09:25:16.833Z,27.14
2023-05-30T09:27:55.376Z,27.26
2023-05-30T09:30:22.095Z,27.26
2023-05-30T09:33:04.970Z,27.37
2023-05-30T09:35:31.950Z,27.45
2023-05-30T09:38:04.734Z,27.59
2023-05-30T09:40:31.691Z,27.59
2023-05-30T09:42:58.316Z,27.70
2023-05-30T09:45:25.736Z,27.65
2023-05-30T09:47:55.420Z,27.62
2023-05-30T09:50:24.585Z,27.62
2023-05-30T09:52:56.467Z,27.53
2023-05-30T09:55:25.817Z,27.49
2023-05-30T09:57:53.451Z,27.53
2023-05-30T10:00:26.405Z,27.65
2023-05-30T10:02:55.714Z,27.83
2023-05-30T10:05:23.660Z,27.97
2023-05-30T10:07:52.612Z,28.09
2023-05-30T10:10:19.997Z,28.10
2023-05-30T10:12:55.284Z,28.23
2023-05-30T10:15:27.286Z,28.23
2023-05-30T10:18:08.979Z,27.95
2023-05-30T10:20:43.014Z,27.72
2023-05-30T10:23:10.584Z,27.59
2023-05-30T10:25:42.462Z,27.68
2023-05-30T10:28:13.537Z,27.78
2023-05-30T10:30:41.205Z,27.95
2023-05-30T10:33:12.605Z,28.04
2023-05-30T10:35:39.640Z,27.96
2023-05-30T10:38:09.001Z,27.80
2023-05-30T10:41:12.471Z,27.72
2023-05-30T10:43:57.796Z,27.64
2023-05-30T10:47:16.039Z,27.68
2023-05-30T10:49:43.004Z,27.73
2023-05-30T10:52:11.510Z,27.76
2023-05-30T10:54:38.862Z,27.79
2023-05-30T10:57:33.430Z,27.80
2023-05-30T11:00:38.959Z,27.92
2023-05-30T11:03:06.048Z,27.99
2023-05-30T11:05:37.426Z,28.04
2023-05-30T11:08:04.583Z,28.11
2023-05-30T11:10:32.991Z,28.20
2023-05-30T11:13:15.760Z,28.23
2023-05-30T11:15:49.725Z,28.36
2023-05-30T11:18:17.770Z,28.45
2023-05-30T11:20:57.559Z,28.47
2023-05-30T11:23:26.094Z,28.50
2023-05-30T11:25:57.320Z,28.55
2023-05-30T11:28:36.418Z,28.56
2023-05-30T11:31:17.962Z,28.60
2023-05-30T11:33:47.515Z,28.53
2023-05-30T11:36:14.898Z,28.59
2023-05-30T11:38:47.382Z,28.63
2023-05-30T11:41:17.670Z,28.85
2023-05-30T11:43:45.233Z,28.93
2023-05-30T11:46:14.032Z,28.93
2023-05-30T11:48:41.596Z,28.94
2023-05-30T11:51:10.078Z,29.03
2023-05-30T11:53:37.111Z,29.01
2023-05-30T11:56:04.009Z,29.05
2023-05-30T11:58:30.811Z,29.12
2023-05-30T12:00:58.086Z,29.12
2023-05-30T12:03:25.387Z,29.17
2023-05-30T12:05:52.789Z,29.15
2023-05-30T12:08:19.943Z,29.12
2023-05-30T12:10:50.245Z,29.02
2023-05-30T12:13:19.048Z,28.98
2023-05-30T12:15:46.059Z,28.99
2023-05-30T12:18:13.314Z,29.02
2023-05-30T12:20:45.245Z,29.04
2023-05-30T12:23:12.311Z,28.96
2023-05-30T12:25:48.183Z,28.80
2023-05-30T12:28:20.071Z,28.73
2023-05-30T12:30:46.772Z,28.71
2023-05-30T12:33:17.850Z,28.62
2023-05-30T12:35:46.133Z,28.51
2023-05-30T12:38:15.400Z,28.51
2023-05-30T12:40:51.732Z,28.50
2023-05-30T12:43:27.692Z,28.54
2023-05-30T12:45:59.022Z,28.55
2023-05-30T12:48:25.731Z,28.62
2023-05-30T12:50:53.609Z,28.63
2023-05-30T12:53:20.406Z,28.69
2023-05-30T12:55:47.081Z,28.77
2023-05-30T12:58:13.687Z,28.84
2023-05-30T13:00:40.513Z,28.88
2023-05-30T13:03:07.307Z,28.93
2023-05-30T13:05:34.138Z,28.97
2023-05-30T13:08:01.061Z,28.91
2023-05-30T13:10:28.239Z,28.83
2023-05-30T13:12:55.223Z,28.82
2023-05-30T13:15:22.116Z,28.81
2023-05-30T13:17:48.900Z,28.71
2023-05-30T13:20:15.710Z,28.60
2023-05-30T13:22:42.490Z,28.43
2023-05-30T13:25:09.438Z,28.34
2023-05-30T13:27:36.050Z,28.31
2023-05-30T13:30:02.925Z,28.29
2023-05-30T13:32:29.607Z,28.24
2023-05-30T13:34:56.396Z,28.28
2023-05-30T13:37:23.352Z,28.32
2023-05-30T13:39:50.406Z,28.37
2023-05-30T13:42:17.647Z,28.23
2023-05-30T13:44:44.676Z,28.08
2023-05-30T13:47:11.395Z,27.98
2023-05-30T13:49:39.200Z,27.88
2023-05-30T13:52:06.660Z,27.82
2023-05-30T13:54:33.464Z,27.66
2023-05-30T13:57:00.208Z,27.41
2023-05-30T13:59:28.029Z,27.13
2023-05-30T14:01:55.365Z,27.04
2023-05-30T14:04:22.242Z,27.01
2023-05-30T14:06:52.252Z,26.68
2023-05-30T14:09:23.072Z,26.23
2023-05-30T14:11:50.626Z,25.80
2023-05-30T14:14:21.615Z,25.67
2023-05-30T14:16:48.396Z,25.64
2023-05-30T14:19:15.384Z,25.63
2023-05-30T14:21:43.085Z,25.64
2023-05-30T14:24:09.805Z,25.62
2023-05-30T14:26:36.570Z,25.68
2023-05-30T14:29:04.006Z,25.57
2023-05-30T14:31:31.043Z,25.53
2023-05-30T14:33:57.956Z,25.59
2023-05-30T14:36:25.025Z,25.64
2023-05-30T14:38:51.639Z,25.71
2023-05-30T14:41:18.275Z,25.73
2023-05-30T14:43:45.005Z,25.75
2023-05-30T14:46:11.961Z,25.69
2023-05-30T14:48:38.837Z,25.69
2023-05-30T14:51:06.279Z,25.72
2023-05-30T14:53:32.943Z,25.67
2023-05-30T14:56:00.436Z,25.63
2023-05-30T14:58:27.441Z,25.53
2023-05-30T15:00:54.662Z,25.45
2023-05-30T15:03:22.327Z,25.39
2023-05-30T15:05:52.229Z,25.36
2023-05-30T15:08:18.911Z,25.26
2023-05-30T15:10:45.553Z,25.10
2023-05-30T15:13:12.519Z,25.01
2023-05-30T15:15:39.362Z,24.85
2023-05-30T15:18:06.340Z,24.77
2023-05-30T15:20:33.214Z,24.71
2023-05-30T15:22:59.876Z,24.67
2023-05-30T15:25:27.078Z,24.68
2023-05-30T15:27:55.459Z,24.69
2023-05-30T15:30:22.263Z,24.69
2023-05-30T15:32:49.045Z,24.67
2023-05-30T15:35:16.120Z,24.74
2023-05-30T15:37:43.137Z,24.76
2023-05-30T15:40:10.242Z,24.63
2023-05-30T15:42:37.316Z,24.59
2023-05-30T15:45:07.556Z,24.47
2023-05-30T15:47:34.332Z,24.44
2023-05-30T15:50:01.143Z,24.34
2023-05-30T15:52:27.825Z,24.20
2023-05-30T15:54:57.037Z,24.14
2023-05-30T15:57:25.233Z,24.06
2023-05-30T15:59:52.467Z,24.00
2023-05-30T16:02:19.321Z,23.92
2023-05-30T16:04:46.432Z,23.87
2023-05-30T16:07:16.835Z,23.77
2023-05-30T16:09:45.711Z,23.65
2023-05-30T16:12:12.598Z,23.60
2023-05-30T16:14:39.213Z,23.58
2023-05-30T16:17:06.155Z,23.57
2023-05-30T16:19:33.238Z,23.58
2023-05-30T16:21:59.916Z,23.61
2023-05-30T16:24:26.636Z,23.62
2023-05-30T16:26:54.498Z,23.65
2023-05-30T16:29:21.257Z,23.67
2023-05-30T16:31:47.869Z,23.63
2023-05-30T16:34:15.648Z,23.60
2023-05-30T16:36:45.044Z,23.55
2023-05-30T16:39:13.286Z,23.53
2023-05-30T16:41:40.737Z,23.51
2023-05-30T16:44:07.613Z,23.39
2023-05-30T16:46:35.101Z,23.32
2023-05-30T16:49:02.122Z,23.19
2023-05-30T16:51:28.815Z,23.11
2023-05-30T16:53:55.442Z,23.04
2023-05-30T16:56:23.073Z,22.96
2023-05-30T16:58:52.447Z,22.85
2023-05-30T17:01:19.683Z,22.74
2023-05-30T17:03:48.026Z,22.62
2023-05-30T17:06:16.837Z,22.50
2023-05-30T17:08:43.679Z,22.39
2023-05-30T17:11:13.126Z,22.26
2023-05-30T17:13:40.068Z,22.10
2023-05-30T17:16:08.850Z,21.93
2023-05-30T17:18:36.328Z,21.77
2023-05-30T17:21:03.418Z,21.68
2023-05-30T17:23:31.900Z,21.58
2023-05-30T17:26:03.257Z,21.49
2023-05-30T17:28:31.040Z,21.44
2023-05-30T17:30:59.012Z,21.38
2023-05-30T17:33:26.397Z,21.29
2023-05-30T17:35:56.137Z,21.19
2023-05-30T17:38:23.112Z,21.13
2023-05-30T17:40:49.960Z,21.05
2023-05-30T17:43:17.791Z,20.93
2023-05-30T17:45:44.925Z,20.77
2023-05-30T17:48:12.398Z,20.65
2023-05-30T17:50:39.921Z,20.49
2023-05-30T17:53:07.460Z,20.43
2023-05-30T17:55:35.215Z,20.33
2023-05-30T17:58:02.604Z,20.32
2023-05-30T18:00:30.984Z,20.28
2023-05-30T18:02:58.778Z,20.28
2023-05-30T18:05:25.862Z,20.22
2023-05-30T18:07:55.545Z,20.21
2023-05-30T18:10:22.427Z,20.09
2023-05-30T18:12:49.112Z,20.04
2023-05-30T18:15:15.995Z,19.99
2023-05-30T18:17:42.892Z,19.92
2023-05-30T18:20:10.154Z,19.85
2023-05-30T18:22:36.961Z,19.84
2023-05-30T18:25:04.139Z,19.86
2023-05-30T18:27:31.122Z,19.83
2023-05-30T18:29:58.176Z,19.77
2023-05-30T18:32:25.591Z,19.74
2023-05-30T18:34:52.389Z,19.72
2023-05-30T18:37:20.046Z,19.69
2023-05-30T18:39:49.168Z,19.70
2023-05-30T18:42:16.062Z,19.70
2023-05-30T18:44:42.724Z,19.73
2023-05-30T18:47:10.179Z,19.70
2023-05-30T18:49:37.555Z,19.75
2023-05-30T18:52:04.556Z,19.67
2023-05-30T18:54:31.847Z,19.65
2023-05-30T18:56:58.886Z,19.60
2023-05-30T18:59:25.605Z,19.53
2023-05-30T19:01:52.631Z,19.52
2023-05-30T19:04:19.752Z,19.45
2023-05-30T19:06:46.394Z,19.38
2023-05-30T19:09:13.288Z,19.25
2023-05-30T19:11:39.912Z,19.12
2023-05-30T19:14:06.874Z,18.95
2023-05-30T19:16:33.958Z,18.84
2023-05-30T19:19:00.607Z,18.74
2023-05-30T19:21:27.427Z,18.68
2023-05-30T19:23:54.439Z,18.57
2023-05-30T19:26:22.236Z,18.46
2023-05-30T19:28:50.456Z,18.39
2023-05-30T19:31:17.434Z,18.33
2023-05-30T19:33:45.193Z,18.24
2023-05-30T19:36:12.090Z,18.27
2023-05-30T19:38:39.483Z,18.32
2023-05-30T19:41:09.234Z,18.34
2023-05-30T19:43:36.633Z,18.37
2023-05-30T19:46:08.353Z,18.35
2023-05-30T19:48:35.435Z,18.37
2023-05-30T19:51:02.272Z,18.32
2023-05-30T19:53:29.579Z,18.31
2023-05-30T19:55:56.357Z,18.28
2023-05-30T19:58:24.366Z,18.23
2023-05-30T20:00:51.895Z,18.23
2023-05-30T20:03:19.437Z,18.17
2023-05-30T20:05:47.000Z,18.06
2023-05-30T20:08:13.968Z,17.99
2023-05-30T20:10:40.838Z,17.99
2023-05-30T20:13:07.585Z,17.99
2023-05-30T20:15:34.343Z,17.98
2023-05-30T20:18:02.398Z,17.94
2023-05-30T20:20:30.315Z,17.87
2023-05-30T20:22:57.904Z,17.79
2023-05-30T20:25:25.146Z,17.69
2023-05-30T20:27:52.491Z,17.69
2023-05-30T20:30:19.866Z,17.67
2023-05-30T20:32:47.164Z,17.60
2023-05-30T20:35:14.191Z,17.57
2023-05-30T20:37:41.199Z,17.51
2023-05-30T20:40:08.704Z,17.44
2023-05-30T20:42:35.501Z,17.43
2023-05-30T20:45:02.554Z,17.37
2023-05-30T20:47:30.461Z,17.28
2023-05-30T20:50:04.526Z,17.24
2023-05-30T20:52:31.875Z,17.22
2023-05-30T20:54:58.644Z,17.13
2023-05-30T20:57:25.549Z,17.02
2023-05-30T20:59:53.351Z,16.92
2023-05-30T21:02:20.649Z,16.84
2023-05-30T21:04:47.562Z,16.80
2023-05-30T21:07:14.402Z,16.72
2023-05-30T21:09:41.533Z,16.63
2023-05-30T21:12:09.109Z,16.57
2023-05-30T21:14:35.806Z,16.52
2023-05-30T21:17:02.402Z,16.43
2023-05-30T21:19:29.235Z,16.37
2023-05-30T21:21:55.857Z,16.39
2023-05-30T21:24:22.504Z,16.31
2023-05-30T21:26:49.504Z,16.24
2023-05-30T21:29:16.209Z,16.14
2023-05-30T21:31:42.903Z,16.13
2023-05-30T21:34:10.076Z,16.10
2023-05-30T21:36:38.310Z,16.12
2023-05-30T21:39:06.387Z,16.10
2023-05-30T21:41:33.119Z,15.99
2023-05-30T21:44:00.003Z,15.93
2023-05-30T21:46:27.116Z,15.79
2023-05-30T21:48:54.191Z,15.79
2023-05-30T21:51:21.068Z,15.76
2023-05-30T21:53:47.775Z,15.67
2023-05-30T21:56:14.623Z,15.64
2023-05-30T21:58:41.305Z,15.60
2023-05-30T22:01:07.964Z,15.61
2023-05-30T22:03:34.980Z,15.59
2023-05-30T22:06:01.889Z,15.59
2023-05-30T22:08:28.552Z,15.60
2023-05-30T22:10:55.300Z,15.58
2023-05-30T22:13:22.638Z,15.53
2023-05-30T22:15:49.349Z,15.47
2023-05-30T22:18:16.772Z,15.44
2023-05-30T22:20:43.695Z,15.38
2023-05-30T22:23:10.433Z,15.30
2023-05-30T22:25:37.371Z,15.24
2023-05-30T22:28:04.091Z,15.17
2023-05-30T22:30:30.826Z,15.19
2023-05-30T22:32:57.581Z,15.16
2023-05-30T22:35:25.893Z,15.14
2023-05-30T22:37:52.497Z,15.11
2023-05-30T22:40:19.317Z,15.07
2023-05-30T22:42:46.138Z,15.02
2023-05-30T22:45:12.796Z,15.00
2023-05-30T22:47:40.054Z,14.98
2023-05-30T22:50:07.322Z,14.90
2023-05-30T22:52:33.976Z,14.84
2023-05-30T22:55:00.918Z,14.78
2023-05-30T22:57:27.715Z,14.74
2023-05-30T22:59:54.329Z,14.72
2023-05-30T23:02:21.618Z,14.75
2023-05-30T23:04:48.653Z,14.69
2023-05-30T23:07:15.466Z,14.64
2023-05-30T23:09:42.674Z,14.63
2023-05-30T23:12:09.722Z,14.57
2023-05-30T23:14:36.765Z,14.57
2023-05-30T23:17:03.766Z,14.58
2023-05-30T23:19:30.858Z,14.58
2023-05-30T23:21:57.783Z,14.56
2023-05-30T23:24:24.691Z,14.56
2023-05-30T23:26:51.310Z,14.54
2023-05-30T23:29:17.900Z,14.49
2023-05-30T23:31:44.783Z,14.54
2023-05-30T23:34:12.933Z,14.48
2023-05-30T23:36:39.740Z,14.49
2023-05-30T23:39:06.505Z,14.40
2023-05-30T23:41:33.186Z,14.38
2023-05-30T23:43:59.816Z,14.40
2023-05-30T23:46:26.678Z,14.37
2023-05-30T23:48:53.850Z,14.29
2023-05-30T23:51:20.992Z,14.30
2023-05-30T23:53:47.939Z,14.25
2023-05-30T23:56:14.669Z,14.20
2023-05-30T23:58:41.482Z,14.17
